Somerville, Texas
Current Conditions -  °F | °C
As of 2:35 PM on Tuesday 25 Nov 2014 (Local Time) from K11R Reporting Station
Clear Clear  
Wind Chill: 67°   Ceiling: Unl
Heat Index: 67°   Visibility: 10mi
Dew Point: 25°   Wind: 7mph
Humidity: 21%   Direction: 300°WNW
Pressure: 30.25"   Gusts: NA
Location:  30.35°N, 96.53°W
Report Text: K11R 252035Z AUTO 30006KT 10SM CLR 19/M04 A3025 RMK AO2 T01931038
Loading
Personal Weather Stations






























Interactive Weather Map New forecast layout! Learn more

10-Day Weather Forecast

Advertisements
Track Severe Weather on mobile